sensor_id;sensor_type;location;lat;lon;timestamp;pressure;altitude;pressure_sealevel;temperature;humidity
41632;BME280;37452;51.938;4.624;2023-05-07T00:00:18;76672.66;;;-142.75;100.00
41632;BME280;37452;51.938;4.624;2023-05-07T00:02:47;76668.72;;;-142.75;100.00
41632;BME280;37452;51.938;4.624;2023-05-07T00:05:12;76662.81;;;-142.75;100.00
41632;BME280;37452;51.938;4.624;2023-05-07T00:07:37;76658.88;;;-142.75;100.00
41632;BME280;37452;51.938;4.624;2023-05-07T00:10:03;76652.97;;;-142.75;100.00
41632;BME280;37452;51.938;4.624;2023-05-07T00:12:29;76652.97;;;-142.75;100.00
41632;BME280;37452;51.938;4.624;2023-05-07T00:14:56;76662.81;;;-142.75;100.00
41632;BME280;37452;51.938;4.624;2023-05-07T00:17:21;76668.72;;;-142.75;100.00
41632;BME280;37452;51.938;4.624;2023-05-07T00:19:47;76662.81;;;-142.75;100.00
41632;BME280;37452;51.938;4.624;2023-05-07T00:22:12;76654.94;;;-142.75;100.00
41632;BME280;37452;51.938;4.624;2023-05-07T00:24:37;76625.41;;;-142.75;100.00
41632;BME280;37452;51.938;4.624;2023-05-07T00:27:03;76621.47;;;-142.75;100.00
41632;BME280;37452;51.938;4.624;2023-05-07T00:29:28;76627.38;;;-142.75;100.00
41632;BME280;37452;51.938;4.624;2023-05-07T00:31:53;76627.38;;;-142.75;100.00
41632;BME280;37452;51.938;4.624;2023-05-07T00:34:19;76625.41;;;-142.75;100.00
41632;BME280;37452;51.938;4.624;2023-05-07T00:36:45;76617.53;;;-142.75;100.00
41632;BME280;37452;51.938;4.624;2023-05-07T00:39:10;76625.41;;;-142.75;100.00
41632;BME280;37452;51.938;4.624;2023-05-07T00:41:36;76639.19;;;-142.75;100.00
41632;BME280;37452;51.938;4.624;2023-05-07T00:44:01;76635.25;;;-142.75;100.00
41632;BME280;37452;51.938;4.624;2023-05-07T00:46:27;76621.47;;;-142.75;100.00
41632;BME280;37452;51.938;4.624;2023-05-07T00:48:53;76633.28;;;-142.75;100.00
41632;BME280;37452;51.938;4.624;2023-05-07T00:51:19;76625.41;;;-142.75;100.00
41632;BME280;37452;51.938;4.624;2023-05-07T00:53:44;76637.22;;;-142.75;100.00
41632;BME280;37452;51.938;4.624;2023-05-07T00:56:10;76633.28;;;-142.75;100.00
41632;BME280;37452;51.938;4.624;2023-05-07T00:58:36;76635.25;;;-142.75;100.00
41632;BME280;37452;51.938;4.624;2023-05-07T01:01:01;76625.41;;;-142.75;100.00
41632;BME280;37452;51.938;4.624;2023-05-07T01:03:26;76617.53;;;-142.75;100.00
41632;BME280;37452;51.938;4.624;2023-05-07T01:05:52;76615.56;;;-142.75;100.00
41632;BME280;37452;51.938;4.624;2023-05-07T01:08:17;76617.53;;;-142.75;100.00
41632;BME280;37452;51.938;4.624;2023-05-07T01:10:43;76611.63;;;-142.75;100.00
41632;BME280;37452;51.938;4.624;2023-05-07T01:13:09;76613.59;;;-142.75;100.00
41632;BME280;37452;51.938;4.624;2023-05-07T01:15:35;76617.53;;;-142.75;100.00
41632;BME280;37452;51.938;4.624;2023-05-07T01:18:00;76621.47;;;-142.75;100.00
41632;BME280;37452;51.938;4.624;2023-05-07T01:20:26;76637.22;;;-142.75;100.00
41632;BME280;37452;51.938;4.624;2023-05-07T01:22:52;76651.00;;;-142.75;100.00
41632;BME280;37452;51.938;4.624;2023-05-07T01:25:18;76652.97;;;-142.75;100.00
41632;BME280;37452;51.938;4.624;2023-05-07T01:27:43;76652.97;;;-142.75;100.00
41632;BME280;37452;51.938;4.624;2023-05-07T01:30:08;76652.97;;;-142.75;100.00
41632;BME280;37452;51.938;4.624;2023-05-07T01:34:59;76660.84;;;-142.75;100.00
41632;BME280;37452;51.938;4.624;2023-05-07T01:37:25;76651.00;;;-142.75;100.00
41632;BME280;37452;51.938;4.624;2023-05-07T01:39:51;76641.16;;;-142.75;100.00
41632;BME280;37452;51.938;4.624;2023-05-07T01:42:18;76621.47;;;-142.75;100.00
41632;BME280;37452;51.938;4.624;2023-05-07T01:44:43;76609.66;;;-142.75;100.00
41632;BME280;37452;51.938;4.624;2023-05-07T01:47:09;76601.78;;;-142.75;100.00
41632;BME280;37452;51.938;4.624;2023-05-07T01:49:34;76597.84;;;-142.75;100.00
41632;BME280;37452;51.938;4.624;2023-05-07T01:52:00;76588.00;;;-142.75;100.00
41632;BME280;37452;51.938;4.624;2023-05-07T01:54:25;76595.88;;;-142.75;100.00
41632;BME280;37452;51.938;4.624;2023-05-07T01:56:52;76601.78;;;-142.75;100.00
41632;BME280;37452;51.938;4.624;2023-05-07T01:59:17;76593.91;;;-142.75;100.00
41632;BME280;37452;51.938;4.624;2023-05-07T02:01:42;76591.94;;;-142.75;100.00
41632;BME280;37452;51.938;4.624;2023-05-07T02:04:08;76591.94;;;-142.75;100.00
41632;BME280;37452;51.938;4.624;2023-05-07T02:06:33;76584.06;;;-142.75;100.00
41632;BME280;37452;51.938;4.624;2023-05-07T02:08:58;76601.78;;;-142.75;100.00
41632;BME280;37452;51.938;4.624;2023-05-07T02:11:23;76589.97;;;-142.75;100.00
41632;BME280;37452;51.938;4.624;2023-05-07T02:13:50;76574.22;;;-142.75;100.00
41632;BME280;37452;51.938;4.624;2023-05-07T02:16:15;76582.09;;;-142.75;100.00
41632;BME280;37452;51.938;4.624;2023-05-07T02:18:40;76576.19;;;-142.75;100.00
41632;BME280;37452;51.938;4.624;2023-05-07T02:21:05;76582.09;;;-142.75;100.00
41632;BME280;37452;51.938;4.624;2023-05-07T02:23:31;76603.75;;;-142.75;100.00
41632;BME280;37452;51.938;4.624;2023-05-07T02:25:56;76607.69;;;-142.75;100.00
41632;BME280;37452;51.938;4.624;2023-05-07T02:28:21;76605.72;;;-142.75;100.00
41632;BME280;37452;51.938;4.624;2023-05-07T02:30:46;76611.63;;;-142.75;100.00
41632;BME280;37452;51.938;4.624;2023-05-07T02:33:12;76603.75;;;-142.75;100.00
41632;BME280;37452;51.938;4.624;2023-05-07T02:35:38;76603.75;;;-142.75;100.00
41632;BME280;37452;51.938;4.624;2023-05-07T02:38:04;76591.94;;;-142.75;100.00
41632;BME280;37452;51.938;4.624;2023-05-07T02:40:29;76582.09;;;-142.75;100.00
41632;BME280;37452;51.938;4.624;2023-05-07T02:42:54;76572.25;;;-142.75;100.00
41632;BME280;37452;51.938;4.624;2023-05-07T02:45:20;76582.09;;;-142.75;100.00
41632;BME280;37452;51.938;4.624;2023-05-07T02:47:45;76572.25;;;-142.75;100.00
41632;BME280;37452;51.938;4.624;2023-05-07T02:50:11;76578.16;;;-142.75;100.00
41632;BME280;37452;51.938;4.624;2023-05-07T02:52:36;76566.34;;;-142.75;100.00
41632;BME280;37452;51.938;4.624;2023-05-07T02:55:01;76566.34;;;-142.75;100.00
41632;BME280;37452;51.938;4.624;2023-05-07T02:57:27;76574.22;;;-142.75;100.00
41632;BME280;37452;51.938;4.624;2023-05-07T02:59:52;76586.03;;;-142.75;100.00
41632;BME280;37452;51.938;4.624;2023-05-07T03:02:17;76578.16;;;-142.75;100.00
41632;BME280;37452;51.938;4.624;2023-05-07T03:04:43;76574.22;;;-142.75;100.00
41632;BME280;37452;51.938;4.624;2023-05-07T03:07:08;76574.22;;;-142.75;100.00
41632;BME280;37452;51.938;4.624;2023-05-07T03:09:33;76582.09;;;-142.75;100.00
41632;BME280;37452;51.938;4.624;2023-05-07T03:11:58;76578.16;;;-142.75;100.00
41632;BME280;37452;51.938;4.624;2023-05-07T03:14:23;76595.88;;;-142.75;100.00
41632;BME280;37452;51.938;4.624;2023-05-07T03:16:49;76591.94;;;-142.75;100.00
41632;BME280;37452;51.938;4.624;2023-05-07T03:19:15;76572.25;;;-142.75;100.00
41632;BME280;37452;51.938;4.624;2023-05-07T03:21:40;76562.41;;;-142.75;100.00
41632;BME280;37452;51.938;4.624;2023-05-07T03:24:05;76564.38;;;-142.75;100.00
41632;BME280;37452;51.938;4.624;2023-05-07T03:26:30;76566.34;;;-142.75;100.00
41632;BME280;37452;51.938;4.624;2023-05-07T03:28:55;76570.28;;;-142.75;100.00
41632;BME280;37452;51.938;4.624;2023-05-07T03:31:21;76566.34;;;-142.75;100.00
41632;BME280;37452;51.938;4.624;2023-05-07T03:33:56;76572.25;;;-142.75;100.00
41632;BME280;37452;51.938;4.624;2023-05-07T03:36:21;76578.16;;;-142.75;100.00
41632;BME280;37452;51.938;4.624;2023-05-07T03:38:47;76586.03;;;-142.75;100.00
41632;BME280;37452;51.938;4.624;2023-05-07T03:41:13;76595.88;;;-142.75;100.00
41632;BME280;37452;51.938;4.624;2023-05-07T03:43:38;76584.06;;;-142.75;100.00
41632;BME280;37452;51.938;4.624;2023-05-07T03:46:03;76591.94;;;-142.75;100.00
41632;BME280;37452;51.938;4.624;2023-05-07T03:48:29;76570.28;;;-142.75;100.00
41632;BME280;37452;51.938;4.624;2023-05-07T03:50:54;76564.38;;;-142.75;100.00
41632;BME280;37452;51.938;4.624;2023-05-07T03:53:19;76580.13;;;-142.75;100.00
41632;BME280;37452;51.938;4.624;2023-05-07T03:55:44;76566.34;;;-142.75;100.00
41632;BME280;37452;51.938;4.624;2023-05-07T03:58:10;76572.25;;;-142.75;100.00
41632;BME280;37452;51.938;4.624;2023-05-07T04:00:35;76580.13;;;-142.75;100.00
41632;BME280;37452;51.938;4.624;2023-05-07T04:03:03;76582.09;;;-142.75;100.00
41632;BME280;37452;51.938;4.624;2023-05-07T04:05:29;76593.91;;;-142.75;100.00
41632;BME280;37452;51.938;4.624;2023-05-07T04:07:54;76599.81;;;-142.75;100.00
41632;BME280;37452;51.938;4.624;2023-05-07T04:10:20;76611.63;;;-142.75;100.00
41632;BME280;37452;51.938;4.624;2023-05-07T04:12:45;76607.69;;;-142.75;100.00
41632;BME280;37452;51.938;4.624;2023-05-07T04:15:10;76617.53;;;-142.75;100.00
41632;BME280;37452;51.938;4.624;2023-05-07T04:17:35;76609.66;;;-142.75;100.00
41632;BME280;37452;51.938;4.624;2023-05-07T04:20:00;76617.53;;;-142.75;100.00
41632;BME280;37452;51.938;4.624;2023-05-07T04:22:26;76615.56;;;-142.75;100.00
41632;BME280;37452;51.938;4.624;2023-05-07T04:24:51;76617.53;;;-142.75;100.00
41632;BME280;37452;51.938;4.624;2023-05-07T04:27:16;76621.47;;;-142.75;100.00
41632;BME280;37452;51.938;4.624;2023-05-07T04:29:42;76621.47;;;-142.75;100.00
41632;BME280;37452;51.938;4.624;2023-05-07T04:32:08;76617.53;;;-142.75;100.00
41632;BME280;37452;51.938;4.624;2023-05-07T04:34:34;76615.56;;;-142.75;100.00
41632;BME280;37452;51.938;4.624;2023-05-07T04:36:59;76623.44;;;-142.75;100.00
41632;BME280;37452;51.938;4.624;2023-05-07T04:39:24;76623.44;;;-142.75;100.00
41632;BME280;37452;51.938;4.624;2023-05-07T04:41:50;76619.50;;;-142.75;100.00
41632;BME280;37452;51.938;4.624;2023-05-07T04:44:15;76623.44;;;-142.75;100.00
41632;BME280;37452;51.938;4.624;2023-05-07T04:46:40;76617.53;;;-142.75;100.00
41632;BME280;37452;51.938;4.624;2023-05-07T04:49:05;76621.47;;;-142.75;100.00
41632;BME280;37452;51.938;4.624;2023-05-07T04:51:30;76613.59;;;-142.75;100.00
41632;BME280;37452;51.938;4.624;2023-05-07T04:53:57;76605.72;;;-142.75;100.00
41632;BME280;37452;51.938;4.624;2023-05-07T04:56:22;76601.78;;;-142.75;100.00
41632;BME280;37452;51.938;4.624;2023-05-07T04:58:48;76593.91;;;-142.75;100.00
41632;BME280;37452;51.938;4.624;2023-05-07T05:01:13;76605.72;;;-142.75;100.00
41632;BME280;37452;51.938;4.624;2023-05-07T05:03:38;76609.66;;;-142.75;100.00
41632;BME280;37452;51.938;4.624;2023-05-07T05:06:04;76605.72;;;-142.75;100.00
41632;BME280;37452;51.938;4.624;2023-05-07T05:08:29;76599.81;;;-142.75;100.00
41632;BME280;37452;51.938;4.624;2023-05-07T05:10:55;76597.84;;;-142.75;100.00
41632;BME280;37452;51.938;4.624;2023-05-07T05:13:20;76584.06;;;-142.75;100.00
41632;BME280;37452;51.938;4.624;2023-05-07T05:15:46;76597.84;;;-142.75;100.00
41632;BME280;37452;51.938;4.624;2023-05-07T05:18:11;76599.81;;;-142.75;100.00
41632;BME280;37452;51.938;4.624;2023-05-07T05:20:36;76601.78;;;-142.75;100.00
41632;BME280;37452;51.938;4.624;2023-05-07T05:23:01;76611.63;;;-142.75;100.00
41632;BME280;37452;51.938;4.624;2023-05-07T05:25:27;76629.34;;;-142.75;100.00
41632;BME280;37452;51.938;4.624;2023-05-07T05:27:56;76623.44;;;-142.75;100.00
41632;BME280;37452;51.938;4.624;2023-05-07T05:30:21;76617.53;;;-142.75;100.00
41632;BME280;37452;51.938;4.624;2023-05-07T05:32:46;76613.59;;;-142.75;100.00
41632;BME280;37452;51.938;4.624;2023-05-07T05:35:12;76609.66;;;-142.75;100.00
41632;BME280;37452;51.938;4.624;2023-05-07T05:37:37;76613.59;;;-142.75;100.00
41632;BME280;37452;51.938;4.624;2023-05-07T05:40:02;76619.50;;;-142.75;100.00
41632;BME280;37452;51.938;4.624;2023-05-07T05:42:28;76619.50;;;-142.75;100.00
41632;BME280;37452;51.938;4.624;2023-05-07T05:44:53;76621.47;;;-142.75;100.00
41632;BME280;37452;51.938;4.624;2023-05-07T05:47:18;76625.41;;;-142.75;100.00
41632;BME280;37452;51.938;4.624;2023-05-07T05:49:44;76607.69;;;-142.75;100.00
41632;BME280;37452;51.938;4.624;2023-05-07T05:52:11;76629.34;;;-142.75;100.00
41632;BME280;37452;51.938;4.624;2023-05-07T05:54:36;76629.34;;;-142.75;100.00
41632;BME280;37452;51.938;4.624;2023-05-07T05:57:01;76629.34;;;-142.75;100.00
41632;BME280;37452;51.938;4.624;2023-05-07T05:59:29;76643.13;;;-142.75;100.00
41632;BME280;37452;51.938;4.624;2023-05-07T06:01:54;76645.09;;;-142.75;100.00
41632;BME280;37452;51.938;4.624;2023-05-07T06:04:19;76651.00;;;-142.75;100.00
41632;BME280;37452;51.938;4.624;2023-05-07T06:06:44;76647.06;;;-142.75;100.00
41632;BME280;37452;51.938;4.624;2023-05-07T06:09:09;76633.28;;;-142.75;100.00
41632;BME280;37452;51.938;4.624;2023-05-07T06:11:35;76643.13;;;-142.75;100.00
41632;BME280;37452;51.938;4.624;2023-05-07T06:14:00;76631.31;;;-142.75;100.00
41632;BME280;37452;51.938;4.624;2023-05-07T06:16:25;76619.50;;;-142.75;100.00
41632;BME280;37452;51.938;4.624;2023-05-07T06:18:50;76617.53;;;-142.75;100.00
41632;BME280;37452;51.938;4.624;2023-05-07T06:21:15;76621.47;;;-142.75;100.00
41632;BME280;37452;51.938;4.624;2023-05-07T06:23:41;76623.44;;;-142.75;100.00
41632;BME280;37452;51.938;4.624;2023-05-07T06:26:06;76609.66;;;-142.75;100.00
41632;BME280;37452;51.938;4.624;2023-05-07T06:28:32;76609.66;;;-142.75;100.00
41632;BME280;37452;51.938;4.624;2023-05-07T06:33:38;76605.72;;;-142.75;100.00
41632;BME280;37452;51.938;4.624;2023-05-07T06:36:03;76613.59;;;-142.75;100.00
41632;BME280;37452;51.938;4.624;2023-05-07T06:38:29;76609.66;;;-142.75;100.00
41632;BME280;37452;51.938;4.624;2023-05-07T06:40:54;76617.53;;;-142.75;100.00
41632;BME280;37452;51.938;4.624;2023-05-07T06:43:20;76621.47;;;-142.75;100.00
41632;BME280;37452;51.938;4.624;2023-05-07T06:45:46;76629.34;;;-142.75;100.00
41632;BME280;37452;51.938;4.624;2023-05-07T06:48:11;76611.63;;;-142.75;100.00
41632;BME280;37452;51.938;4.624;2023-05-07T06:50:36;76613.59;;;-142.75;100.00
41632;BME280;37452;51.938;4.624;2023-05-07T06:53:01;76593.91;;;-142.75;100.00
41632;BME280;37452;51.938;4.624;2023-05-07T06:55:26;76578.16;;;-142.75;100.00
41632;BME280;37452;51.938;4.624;2023-05-07T06:57:52;76570.28;;;-142.75;100.00
41632;BME280;37452;51.938;4.624;2023-05-07T07:00:17;76552.56;;;-142.75;100.00
41632;BME280;37452;51.938;4.624;2023-05-07T07:02:42;76532.88;;;-142.75;100.00
41632;BME280;37452;51.938;4.624;2023-05-07T07:05:08;76530.91;;;-142.75;100.00
41632;BME280;37452;51.938;4.624;2023-05-07T07:07:33;76521.09;;;-142.75;100.00
41632;BME280;37452;51.938;4.624;2023-05-07T07:09:59;76511.25;;;-142.75;100.00
41632;BME280;37452;51.938;4.624;2023-05-07T07:12:24;76519.13;;;-142.75;100.00
41632;BME280;37452;51.938;4.624;2023-05-07T07:14:50;76534.84;;;-142.75;100.00
41632;BME280;37452;51.938;4.624;2023-05-07T07:17:16;76523.06;;;-142.75;100.00
41632;BME280;37452;51.938;4.624;2023-05-07T07:19:41;76523.06;;;-142.75;100.00
41632;BME280;37452;51.938;4.624;2023-05-07T07:22:06;76515.19;;;-142.75;100.00
41632;BME280;37452;51.938;4.624;2023-05-07T07:24:31;76499.44;;;-142.75;100.00
41632;BME280;37452;51.938;4.624;2023-05-07T07:26:56;76507.31;;;-142.75;100.00
41632;BME280;37452;51.938;4.624;2023-05-07T07:29:22;76527.00;;;-142.75;100.00
41632;BME280;37452;51.938;4.624;2023-05-07T07:31:48;76528.97;;;-142.75;100.00
41632;BME280;37452;51.938;4.624;2023-05-07T07:34:14;76503.38;;;-142.75;100.00
41632;BME280;37452;51.938;4.624;2023-05-07T07:36:39;76464.00;;;-142.75;100.00
41632;BME280;37452;51.938;4.624;2023-05-07T07:39:05;76442.34;;;-142.75;100.00
41632;BME280;37452;51.938;4.624;2023-05-07T07:41:30;76385.25;;;-142.75;100.00
41632;BME280;37452;51.938;4.624;2023-05-07T07:43:55;76361.63;;;-142.75;100.00
41632;BME280;37452;51.938;4.624;2023-05-07T07:46:20;76353.78;;;-142.75;100.00
41632;BME280;37452;51.938;4.624;2023-05-07T07:48:45;76377.38;;;-142.75;100.00
41632;BME280;37452;51.938;4.624;2023-05-07T07:51:11;76412.81;;;-142.75;100.00
41632;BME280;37452;51.938;4.624;2023-05-07T07:53:36;76428.56;;;-142.75;100.00
41632;BME280;37452;51.938;4.624;2023-05-07T07:56:01;76456.13;;;-142.75;100.00
41632;BME280;37452;51.938;4.624;2023-05-07T07:58:26;76464.00;;;-142.75;100.00
41632;BME280;37452;51.938;4.624;2023-05-07T08:00:52;76456.13;;;-142.75;100.00
41632;BME280;37452;51.938;4.624;2023-05-07T08:03:17;76471.88;;;-142.75;100.00
41632;BME280;37452;51.938;4.624;2023-05-07T08:05:42;76464.00;;;-142.75;100.00
41632;BME280;37452;51.938;4.624;2023-05-07T08:08:08;76467.94;;;-142.75;100.00
41632;BME280;37452;51.938;4.624;2023-05-07T08:10:33;76460.06;;;-142.75;100.00
41632;BME280;37452;51.938;4.624;2023-05-07T08:12:59;76460.06;;;-142.75;100.00
41632;BME280;37452;51.938;4.624;2023-05-07T08:15:24;76456.13;;;-142.75;100.00
41632;BME280;37452;51.938;4.624;2023-05-07T08:17:50;76456.13;;;-142.75;100.00
41632;BME280;37452;51.938;4.624;2023-05-07T08:20:15;76446.28;;;-142.75;100.00
41632;BME280;37452;51.938;4.624;2023-05-07T08:22:40;76424.63;;;-142.75;100.00
41632;BME280;37452;51.938;4.624;2023-05-07T08:25:05;76430.53;;;-142.75;100.00
41632;BME280;37452;51.938;4.624;2023-05-07T08:27:31;76395.09;;;-142.75;100.00
41632;BME280;37452;51.938;4.624;2023-05-07T08:29:56;76357.69;;;-142.75;100.00
41632;BME280;37452;51.938;4.624;2023-05-07T08:32:21;76322.28;;;-142.75;100.00
41632;BME280;37452;51.938;4.624;2023-05-07T08:34:47;76314.41;;;-142.75;100.00
41632;BME280;37452;51.938;4.624;2023-05-07T08:37:12;76296.69;;;-142.75;100.00
41632;BME280;37452;51.938;4.624;2023-05-07T08:39:37;76284.88;;;-142.75;100.00
41632;BME280;37452;51.938;4.624;2023-05-07T08:42:03;76273.06;;;-142.75;100.00
41632;BME280;37452;51.938;4.624;2023-05-07T08:44:29;76251.41;;;-142.75;100.00
41632;BME280;37452;51.938;4.624;2023-05-07T08:46:57;76217.94;;;-142.75;100.00
41632;BME280;37452;51.938;4.624;2023-05-07T08:49:23;76182.53;;;-142.75;100.00
41632;BME280;37452;51.938;4.624;2023-05-07T08:51:48;76149.06;;;-142.75;100.00
41632;BME280;37452;51.938;4.624;2023-05-07T08:54:15;76174.66;;;-142.75;100.00
41632;BME280;37452;51.938;4.624;2023-05-07T08:56:41;76160.88;;;-142.75;100.00
41632;BME280;37452;51.938;4.624;2023-05-07T08:59:06;76166.78;;;-142.75;100.00
41632;BME280;37452;51.938;4.624;2023-05-07T09:01:31;76182.53;;;-142.75;100.00
41632;BME280;37452;51.938;4.624;2023-05-07T09:03:57;76164.81;;;-142.75;100.00
41632;BME280;37452;51.938;4.624;2023-05-07T09:06:22;76172.69;;;-142.75;100.00
41632;BME280;37452;51.938;4.624;2023-05-07T09:08:51;76188.44;;;-142.75;100.00
41632;BME280;37452;51.938;4.624;2023-05-07T09:11:19;76217.94;;;-142.75;100.00
41632;BME280;37452;51.938;4.624;2023-05-07T09:13:44;76200.25;;;-142.75;100.00
41632;BME280;37452;51.938;4.624;2023-05-07T09:16:10;76229.75;;;-142.75;100.00
41632;BME280;37452;51.938;4.624;2023-05-07T09:18:40;76223.84;;;-142.75;100.00
41632;BME280;37452;51.938;4.624;2023-05-07T09:21:05;76217.94;;;-142.75;100.00
41632;BME280;37452;51.938;4.624;2023-05-07T09:23:34;76233.69;;;-142.75;100.00
41632;BME280;37452;51.938;4.624;2023-05-07T09:26:00;76182.53;;;-142.75;100.00
41632;BME280;37452;51.938;4.624;2023-05-07T09:28:25;76190.41;;;-142.75;100.00
41632;BME280;37452;51.938;4.624;2023-05-07T09:30:51;76190.41;;;-142.75;100.00
41632;BME280;37452;51.938;4.624;2023-05-07T09:33:16;76196.31;;;-142.75;100.00
41632;BME280;37452;51.938;4.624;2023-05-07T09:35:42;76192.38;;;-142.75;100.00
41632;BME280;37452;51.938;4.624;2023-05-07T09:38:07;76184.50;;;-142.75;100.00
41632;BME280;37452;51.938;4.624;2023-05-07T09:40:32;76168.75;;;-142.75;100.00
41632;BME280;37452;51.938;4.624;2023-05-07T09:43:08;76162.84;;;-142.75;100.00
41632;BME280;37452;51.938;4.624;2023-05-07T09:45:34;76160.88;;;-142.75;100.00
41632;BME280;37452;51.938;4.624;2023-05-07T09:47:59;76111.66;;;-142.75;100.00
41632;BME280;37452;51.938;4.624;2023-05-07T09:50:26;76050.66;;;-142.75;100.00
41632;BME280;37452;51.938;4.624;2023-05-07T09:52:52;76036.88;;;-142.75;100.00
41632;BME280;37452;51.938;4.624;2023-05-07T09:55:17;76003.41;;;-142.75;100.00
41632;BME280;37452;51.938;4.624;2023-05-07T09:57:43;75985.69;;;-142.75;100.00
41632;BME280;37452;51.938;4.624;2023-05-07T10:00:10;76025.06;;;-142.75;100.00
41632;BME280;37452;51.938;4.624;2023-05-07T10:02:35;76066.41;;;-142.75;100.00
41632;BME280;37452;51.938;4.624;2023-05-07T10:05:01;76044.75;;;-142.75;100.00
41632;BME280;37452;51.938;4.624;2023-05-07T10:07:27;76019.16;;;-142.75;100.00
41632;BME280;37452;51.938;4.624;2023-05-07T10:09:53;76011.28;;;-142.75;100.00
41632;BME280;37452;51.938;4.624;2023-05-07T10:12:19;75991.59;;;-142.75;100.00
41632;BME280;37452;51.938;4.624;2023-05-07T10:14:45;76005.38;;;-142.75;100.00
41632;BME280;37452;51.938;4.624;2023-05-07T10:17:11;75999.47;;;-142.75;100.00
41632;BME280;37452;51.938;4.624;2023-05-07T10:19:36;76019.16;;;-142.75;100.00
41632;BME280;37452;51.938;4.624;2023-05-07T10:22:04;75987.66;;;-142.75;100.00
41632;BME280;37452;51.938;4.624;2023-05-07T10:24:31;75985.69;;;-142.75;100.00
41632;BME280;37452;51.938;4.624;2023-05-07T10:26:57;75987.66;;;-142.75;100.00
41632;BME280;37452;51.938;4.624;2023-05-07T10:32:14;76023.09;;;-142.75;100.00
41632;BME280;37452;51.938;4.624;2023-05-07T10:34:41;75944.38;;;-142.75;100.00
41632;BME280;37452;51.938;4.624;2023-05-07T10:37:08;75958.16;;;-142.75;100.00
41632;BME280;37452;51.938;4.624;2023-05-07T10:39:34;75934.53;;;-142.75;100.00
41632;BME280;37452;51.938;4.624;2023-05-07T10:42:09;75940.44;;;-142.75;100.00
41632;BME280;37452;51.938;4.624;2023-05-07T10:44:35;75922.72;;;-142.75;100.00
41632;BME280;37452;51.938;4.624;2023-05-07T10:49:30;75944.38;;;-142.75;100.00
41632;BME280;37452;51.938;4.624;2023-05-07T10:52:15;75938.47;;;-142.75;100.00
41632;BME280;37452;51.938;4.624;2023-05-07T10:54:46;75991.59;;;-142.75;100.00
41632;BME280;37452;51.938;4.624;2023-05-07T10:59:55;75979.78;;;-142.75;100.00
41632;BME280;37452;51.938;4.624;2023-05-07T11:02:20;75995.53;;;-142.75;100.00
41632;BME280;37452;51.938;4.624;2023-05-07T11:04:45;76060.50;;;-142.75;100.00
41632;BME280;37452;51.938;4.624;2023-05-07T11:07:30;76052.63;;;-142.75;100.00
41632;BME280;37452;51.938;4.624;2023-05-07T11:09:56;76058.53;;;-142.75;100.00
41632;BME280;37452;51.938;4.624;2023-05-07T11:15:00;76056.56;;;-142.75;100.00
41632;BME280;37452;51.938;4.624;2023-05-07T11:17:26;76062.47;;;-142.75;100.00
41632;BME280;37452;51.938;4.624;2023-05-07T11:19:52;76023.09;;;-142.75;100.00
41632;BME280;37452;51.938;4.624;2023-05-07T11:24:56;76034.91;;;-142.75;100.00
41632;BME280;37452;51.938;4.624;2023-05-07T11:27:25;76044.75;;;-142.75;100.00
41632;BME280;37452;51.938;4.624;2023-05-07T11:29:50;76050.66;;;-142.75;100.00
41632;BME280;37452;51.938;4.624;2023-05-07T11:32:15;76046.72;;;-142.75;100.00
41632;BME280;37452;51.938;4.624;2023-05-07T11:34:47;76070.34;;;-142.75;100.00
41632;BME280;37452;51.938;4.624;2023-05-07T11:37:12;76072.31;;;-142.75;100.00
41632;BME280;37452;51.938;4.624;2023-05-07T11:39:41;76056.56;;;-142.75;100.00
41632;BME280;37452;51.938;4.624;2023-05-07T11:42:07;76052.63;;;-142.75;100.00
41632;BME280;37452;51.938;4.624;2023-05-07T11:44:45;76040.81;;;-142.75;100.00
41632;BME280;37452;51.938;4.624;2023-05-07T11:47:11;76046.72;;;-142.75;100.00
41632;BME280;37452;51.938;4.624;2023-05-07T11:49:36;76027.03;;;-142.75;100.00
41632;BME280;37452;51.938;4.624;2023-05-07T11:52:01;75999.47;;;-142.75;100.00
41632;BME280;37452;51.938;4.624;2023-05-07T11:54:34;75991.59;;;-142.75;100.00
41632;BME280;37452;51.938;4.624;2023-05-07T11:56:59;76005.38;;;-142.75;100.00
41632;BME280;37452;51.938;4.624;2023-05-07T11:59:24;75985.69;;;-142.75;100.00
41632;BME280;37452;51.938;4.624;2023-05-07T12:01:50;75944.38;;;-142.75;100.00
41632;BME280;37452;51.938;4.624;2023-05-07T12:04:18;75920.75;;;-142.75;100.00
41632;BME280;37452;51.938;4.624;2023-05-07T12:06:44;75871.53;;;-142.75;100.00
41632;BME280;37452;51.938;4.624;2023-05-07T12:09:09;75830.22;;;-142.75;98.30
41632;BME280;37452;51.938;4.624;2023-05-07T12:11:36;75779.03;;;-142.75;98.60
41632;BME280;37452;51.938;4.624;2023-05-07T12:14:04;75800.69;;;-142.75;94.58
41632;BME280;37452;51.938;4.624;2023-05-07T12:16:30;75806.59;;;-142.75;93.54
41632;BME280;37452;51.938;4.624;2023-05-07T12:18:55;75944.38;;;-142.75;96.12
41632;BME280;37452;51.938;4.624;2023-05-07T12:21:23;75918.78;;;-142.75;100.00
41632;BME280;37452;51.938;4.624;2023-05-07T12:23:50;76023.09;;;-142.75;100.00
41632;BME280;37452;51.938;4.624;2023-05-07T12:26:15;76042.78;;;-142.75;100.00
41632;BME280;37452;51.938;4.624;2023-05-07T12:28:40;76054.59;;;-142.75;100.00
41632;BME280;37452;51.938;4.624;2023-05-07T12:31:06;76023.09;;;-142.75;100.00
41632;BME280;37452;51.938;4.624;2023-05-07T12:33:31;76054.59;;;-142.75;100.00
41632;BME280;37452;51.938;4.624;2023-05-07T12:35:57;76023.09;;;-142.75;100.00
41632;BME280;37452;51.938;4.624;2023-05-07T12:38:23;76050.66;;;-142.75;100.00
41632;BME280;37452;51.938;4.624;2023-05-07T12:40:49;76050.66;;;-142.75;100.00